Terminal Aerodrome Forecast
Issued by NWS Upton, NY

Current Version | Previous Version | Text Only | Print | Product List | Glossary On
Versions: 1 2 3 4 5 6 7 8 9 10 11 12 13 14 15 16 17 18 19 20 21 22 23 24 25 26
328 FTUS41 KOKX 072350 TAFJFK TAF KJFK 072350Z 0800/0906 04009KT P6SM OVC150 FM080600 04015KT P6SM SCT020 OVC080 FM081000 03019KT 5SM -SN BR OVC015 FM081300 02018G25KT 1SM -SN OVC007 FM082000 01011G17KT 3SM -SN SCT007 OVC015 FM082300 01009KT P6SM OVC025 FM090300 05008KT P6SM BKN025=

USA.gov is the U.S. government's official web portal to all federal, state and local government web resources and services.